sensor_id;sensor_type;location;lat;lon;timestamp;pressure;altitude;pressure_sealevel;temperature;humidity
60465;BME280;46314;52.392;9.758;2022-12-29T00:00:53;99594.88;;;9.56;89.70
60465;BME280;46314;52.392;9.758;2022-12-29T00:03:19;99586.66;;;9.91;89.03
60465;BME280;46314;52.392;9.758;2022-12-29T00:05:54;99583.97;;;10.35;87.08
60465;BME280;46314;52.392;9.758;2022-12-29T00:08:20;99578.09;;;9.53;89.67
60465;BME280;46314;52.392;9.758;2022-12-29T00:10:46;99583.25;;;9.85;89.13
60465;BME280;46314;52.392;9.758;2022-12-29T00:13:14;99572.44;;;9.66;89.13
60465;BME280;46314;52.392;9.758;2022-12-29T00:15:41;99580.78;;;9.84;87.54
60465;BME280;46314;52.392;9.758;2022-12-29T00:18:07;99580.16;;;9.87;88.73
60465;BME280;46314;52.392;9.758;2022-12-29T00:20:34;99576.09;;;10.02;88.13
60465;BME280;46314;52.392;9.758;2022-12-29T00:23:01;99566.28;;;9.78;87.98
60465;BME280;46314;52.392;9.758;2022-12-29T00:25:27;99564.34;;;9.88;89.06
60465;BME280;46314;52.392;9.758;2022-12-29T00:27:54;99565.81;;;10.11;87.57
60465;BME280;46314;52.392;9.758;2022-12-29T00:30:23;99563.72;;;9.99;87.38
60465;BME280;46314;52.392;9.758;2022-12-29T00:32:52;99551.31;;;9.88;88.42
60465;BME280;46314;52.392;9.758;2022-12-29T00:35:23;99548.88;;;10.13;87.84
60465;BME280;46314;52.392;9.758;2022-12-29T00:37:52;99553.13;;;10.28;86.87
60465;BME280;46314;52.392;9.758;2022-12-29T00:40:19;99550.34;;;10.19;87.60
60465;BME280;46314;52.392;9.758;2022-12-29T00:42:46;99539.44;;;10.40;85.97
60465;BME280;46314;52.392;9.758;2022-12-29T00:45:13;99549.88;;;10.08;87.26
60465;BME280;46314;52.392;9.758;2022-12-29T00:47:41;99552.63;;;9.82;88.03
60465;BME280;46314;52.392;9.758;2022-12-29T00:50:07;99549.88;;;9.99;88.38
60465;BME280;46314;52.392;9.758;2022-12-29T00:52:34;99548.06;;;10.21;86.28
60465;BME280;46314;52.392;9.758;2022-12-29T00:55:00;99543.16;;;10.00;86.86
60465;BME280;46314;52.392;9.758;2022-12-29T00:57:26;99552.81;;;10.12;86.77
60465;BME280;46314;52.392;9.758;2022-12-29T00:59:53;99550.84;;;10.56;86.22
60465;BME280;46314;52.392;9.758;2022-12-29T01:02:19;99541.41;;;10.04;87.71
60465;BME280;46314;52.392;9.758;2022-12-29T01:04:47;99543.16;;;10.18;86.74
60465;BME280;46314;52.392;9.758;2022-12-29T01:07:14;99554.56;;;10.08;87.29
60465;BME280;46314;52.392;9.758;2022-12-29T01:09:40;99545.91;;;9.83;89.04
60465;BME280;46314;52.392;9.758;2022-12-29T01:12:08;99536.97;;;10.21;88.04
60465;BME280;46314;52.392;9.758;2022-12-29T01:14:34;99524.59;;;10.45;87.07
60465;BME280;46314;52.392;9.758;2022-12-29T01:17:01;99528.81;;;9.98;88.16
60465;BME280;46314;52.392;9.758;2022-12-29T01:19:27;99515.13;;;10.11;88.17
60465;BME280;46314;52.392;9.758;2022-12-29T01:21:55;99511.22;;;10.47;87.19
60465;BME280;46314;52.392;9.758;2022-12-29T01:24:22;99504.66;;;10.60;86.07
60465;BME280;46314;52.392;9.758;2022-12-29T01:26:49;99503.91;;;10.33;87.24
60465;BME280;46314;52.392;9.758;2022-12-29T01:29:16;99489.72;;;10.44;86.65
60465;BME280;46314;52.392;9.758;2022-12-29T01:31:43;99489.53;;;10.22;88.15
60465;BME280;46314;52.392;9.758;2022-12-29T01:34:10;99491.00;;;10.37;87.90
60465;BME280;46314;52.392;9.758;2022-12-29T01:36:36;99490.22;;;9.93;89.93
60465;BME280;46314;52.392;9.758;2022-12-29T01:39:04;99485.16;;;9.86;90.22
60465;BME280;46314;52.392;9.758;2022-12-29T01:41:30;99483.84;;;9.66;91.90
60465;BME280;46314;52.392;9.758;2022-12-29T01:43:58;99476.84;;;9.86;91.18
60465;BME280;46314;52.392;9.758;2022-12-29T01:46:26;99474.72;;;10.18;89.88
60465;BME280;46314;52.392;9.758;2022-12-29T01:48:57;99473.44;;;9.98;90.22
60465;BME280;46314;52.392;9.758;2022-12-29T01:51:27;99472.78;;;10.10;90.63
60465;BME280;46314;52.392;9.758;2022-12-29T01:53:56;99478.00;;;10.03;89.92
60465;BME280;46314;52.392;9.758;2022-12-29T01:56:25;99478.78;;;10.38;88.77
60465;BME280;46314;52.392;9.758;2022-12-29T01:58:55;99464.16;;;9.94;90.78
60465;BME280;46314;52.392;9.758;2022-12-29T02:01:24;99469.38;;;10.04;90.33
60465;BME280;46314;52.392;9.758;2022-12-29T02:03:51;99460.50;;;10.46;89.23
60465;BME280;46314;52.392;9.758;2022-12-29T02:06:21;99455.34;;;10.10;90.00
60465;BME280;46314;52.392;9.758;2022-12-29T02:08:50;99459.91;;;9.88;91.03
60465;BME280;46314;52.392;9.758;2022-12-29T02:11:19;99453.69;;;10.17;91.04
60465;BME280;46314;52.392;9.758;2022-12-29T02:13:47;99450.94;;;10.09;90.35
60465;BME280;46314;52.392;9.758;2022-12-29T02:16:25;99452.75;;;9.87;91.34
60465;BME280;46314;52.392;9.758;2022-12-29T02:19:07;99444.56;;;10.26;89.13
60465;BME280;46314;52.392;9.758;2022-12-29T02:21:48;99453.88;;;9.86;90.87
60465;BME280;46314;52.392;9.758;2022-12-29T02:24:40;99446.97;;;10.27;89.60
60465;BME280;46314;52.392;9.758;2022-12-29T02:27:37;99433.97;;;10.19;89.68
60465;BME280;46314;52.392;9.758;2022-12-29T02:30:15;99430.88;;;10.38;87.58
60465;BME280;46314;52.392;9.758;2022-12-29T02:32:50;99439.00;;;10.26;88.83
60465;BME280;46314;52.392;9.758;2022-12-29T02:35:27;99445.06;;;10.10;89.01
60465;BME280;46314;52.392;9.758;2022-12-29T02:38:01;99448.81;;;10.14;90.52
60465;BME280;46314;52.392;9.758;2022-12-29T02:40:36;99435.41;;;10.42;87.34
60465;BME280;46314;52.392;9.758;2022-12-29T02:43:11;99434.91;;;10.40;87.71
60465;BME280;46314;52.392;9.758;2022-12-29T02:45:47;99445.19;;;10.49;86.82
60465;BME280;46314;52.392;9.758;2022-12-29T02:48:20;99448.31;;;10.38;87.26
60465;BME280;46314;52.392;9.758;2022-12-29T02:50:54;99447.09;;;10.57;87.30
60465;BME280;46314;52.392;9.758;2022-12-29T02:53:23;99439.16;;;10.29;88.58
60465;BME280;46314;52.392;9.758;2022-12-29T02:55:51;99427.06;;;10.51;88.56
60465;BME280;46314;52.392;9.758;2022-12-29T02:58:19;99431.34;;;10.40;87.90
60465;BME280;46314;52.392;9.758;2022-12-29T03:00:56;99431.47;;;10.52;86.84
60465;BME280;46314;52.392;9.758;2022-12-29T03:03:42;99429.69;;;10.48;87.75
60465;BME280;46314;52.392;9.758;2022-12-29T03:06:29;99434.13;;;10.31;89.39
60465;BME280;46314;52.392;9.758;2022-12-29T03:08:59;99427.09;;;10.25;89.94
60465;BME280;46314;52.392;9.758;2022-12-29T03:11:32;99431.09;;;10.63;89.30
60465;BME280;46314;52.392;9.758;2022-12-29T03:14:04;99426.50;;;10.67;88.70
60465;BME280;46314;52.392;9.758;2022-12-29T03:16:40;99420.44;;;10.35;90.34
60465;BME280;46314;52.392;9.758;2022-12-29T03:19:15;99417.28;;;10.54;90.06
60465;BME280;46314;52.392;9.758;2022-12-29T03:21:48;99412.03;;;10.61;89.35
60465;BME280;46314;52.392;9.758;2022-12-29T03:24:17;99409.16;;;10.40;91.22
60465;BME280;46314;52.392;9.758;2022-12-29T03:26:47;99409.56;;;10.98;88.49
60465;BME280;46314;52.392;9.758;2022-12-29T03:29:16;99406.41;;;10.78;89.59
60465;BME280;46314;52.392;9.758;2022-12-29T03:31:44;99379.41;;;10.58;89.38
60465;BME280;46314;52.392;9.758;2022-12-29T03:34:13;99384.16;;;10.57;89.95
60465;BME280;46314;52.392;9.758;2022-12-29T03:36:44;99377.00;;;10.48;89.97
60465;BME280;46314;52.392;9.758;2022-12-29T03:39:14;99384.81;;;10.54;89.93
60465;BME280;46314;52.392;9.758;2022-12-29T03:41:42;99387.63;;;10.46;89.97
60465;BME280;46314;52.392;9.758;2022-12-29T03:44:10;99397.81;;;11.01;88.65
60465;BME280;46314;52.392;9.758;2022-12-29T03:46:36;99376.22;;;10.77;88.41
60465;BME280;46314;52.392;9.758;2022-12-29T03:49:03;99379.91;;;10.90;86.79
60465;BME280;46314;52.392;9.758;2022-12-29T03:51:31;99363.63;;;10.50;89.99
60465;BME280;46314;52.392;9.758;2022-12-29T03:53:57;99364.00;;;10.69;89.17
60465;BME280;46314;52.392;9.758;2022-12-29T03:56:23;99372.50;;;11.24;86.24
60465;BME280;46314;52.392;9.758;2022-12-29T03:58:50;99356.53;;;11.21;85.92
60465;BME280;46314;52.392;9.758;2022-12-29T04:01:16;99358.00;;;11.18;86.31
60465;BME280;46314;52.392;9.758;2022-12-29T04:03:43;99359.22;;;11.08;86.18
60465;BME280;46314;52.392;9.758;2022-12-29T04:06:10;99364.88;;;10.91;87.33
60465;BME280;46314;52.392;9.758;2022-12-29T04:08:37;99369.44;;;11.16;86.24
60465;BME280;46314;52.392;9.758;2022-12-29T04:11:04;99366.66;;;11.37;84.74
60465;BME280;46314;52.392;9.758;2022-12-29T04:13:30;99359.31;;;11.21;85.32
60465;BME280;46314;52.392;9.758;2022-12-29T04:15:57;99369.97;;;11.10;85.29
60465;BME280;46314;52.392;9.758;2022-12-29T04:18:24;99367.28;;;11.01;86.82
60465;BME280;46314;52.392;9.758;2022-12-29T04:20:50;99363.34;;;11.23;84.66
60465;BME280;46314;52.392;9.758;2022-12-29T04:23:17;99365.31;;;11.02;86.21
60465;BME280;46314;52.392;9.758;2022-12-29T04:25:46;99362.69;;;11.05;85.39
60465;BME280;46314;52.392;9.758;2022-12-29T04:28:12;99368.19;;;11.35;83.70
60465;BME280;46314;52.392;9.758;2022-12-29T04:30:39;99380.16;;;11.27;84.97
60465;BME280;46314;52.392;9.758;2022-12-29T04:33:06;99365.59;;;11.51;83.70
60465;BME280;46314;52.392;9.758;2022-12-29T04:35:32;99369.31;;;11.13;85.27
60465;BME280;46314;52.392;9.758;2022-12-29T04:37:59;99363.03;;;11.46;83.64
60465;BME280;46314;52.392;9.758;2022-12-29T04:40:26;99376.22;;;11.70;82.53
60465;BME280;46314;52.392;9.758;2022-12-29T04:42:53;99380.41;;;11.34;83.81
60465;BME280;46314;52.392;9.758;2022-12-29T04:45:20;99371.81;;;11.69;82.39
60465;BME280;46314;52.392;9.758;2022-12-29T04:47:47;99366.81;;;11.20;84.19
60465;BME280;46314;52.392;9.758;2022-12-29T04:50:13;99363.03;;;11.46;83.04
60465;BME280;46314;52.392;9.758;2022-12-29T04:52:40;99360.78;;;11.39;83.54
60465;BME280;46314;52.392;9.758;2022-12-29T04:55:07;99356.03;;;11.40;83.58
60465;BME280;46314;52.392;9.758;2022-12-29T04:57:33;99361.31;;;11.53;82.11
60465;BME280;46314;52.392;9.758;2022-12-29T05:00:01;99370.75;;;11.61;81.70
60465;BME280;46314;52.392;9.758;2022-12-29T05:02:27;99365.34;;;11.44;82.09
60465;BME280;46314;52.392;9.758;2022-12-29T05:04:54;99341.66;;;11.59;80.89
60465;BME280;46314;52.392;9.758;2022-12-29T05:07:24;99353.59;;;11.59;81.83
60465;BME280;46314;52.392;9.758;2022-12-29T05:09:50;99345.22;;;11.47;81.35
60465;BME280;46314;52.392;9.758;2022-12-29T05:12:16;99347.91;;;11.55;81.51
60465;BME280;46314;52.392;9.758;2022-12-29T05:14:43;99347.03;;;11.97;79.69
60465;BME280;46314;52.392;9.758;2022-12-29T05:17:11;99342.81;;;11.79;79.22
60465;BME280;46314;52.392;9.758;2022-12-29T05:19:37;99346.09;;;11.39;81.62
60465;BME280;46314;52.392;9.758;2022-12-29T05:22:03;99332.84;;;11.78;80.53
60465;BME280;46314;52.392;9.758;2022-12-29T05:24:30;99347.84;;;11.43;81.86
60465;BME280;46314;52.392;9.758;2022-12-29T05:26:56;99351.34;;;11.73;80.25
60465;BME280;46314;52.392;9.758;2022-12-29T05:29:23;99345.31;;;11.71;80.52
60465;BME280;46314;52.392;9.758;2022-12-29T05:31:49;99338.97;;;11.83;79.94
60465;BME280;46314;52.392;9.758;2022-12-29T05:34:17;99348.22;;;11.21;82.20
60465;BME280;46314;52.392;9.758;2022-12-29T05:36:43;99346.63;;;11.53;82.01
60465;BME280;46314;52.392;9.758;2022-12-29T05:39:10;99345.00;;;11.31;81.83
60465;BME280;46314;52.392;9.758;2022-12-29T05:41:36;99344.38;;;11.67;80.95
60465;BME280;46314;52.392;9.758;2022-12-29T05:44:03;99348.19;;;11.63;80.60
60465;BME280;46314;52.392;9.758;2022-12-29T05:46:29;99342.91;;;11.49;81.39
60465;BME280;46314;52.392;9.758;2022-12-29T05:48:56;99343.06;;;11.86;80.37
60465;BME280;46314;52.392;9.758;2022-12-29T05:51:23;99350.78;;;11.26;83.18
60465;BME280;46314;52.392;9.758;2022-12-29T05:53:50;99361.25;;;11.20;84.25
60465;BME280;46314;52.392;9.758;2022-12-29T05:56:16;99356.53;;;11.21;85.38
60465;BME280;46314;52.392;9.758;2022-12-29T05:58:43;99358.47;;;11.62;83.57
60465;BME280;46314;52.392;9.758;2022-12-29T06:01:09;99356.16;;;11.64;82.70
60465;BME280;46314;52.392;9.758;2022-12-29T06:03:35;99354.41;;;11.60;83.60
60465;BME280;46314;52.392;9.758;2022-12-29T06:06:02;99347.94;;;11.68;83.12
60465;BME280;46314;52.392;9.758;2022-12-29T06:08:30;99336.84;;;11.68;83.29
60465;BME280;46314;52.392;9.758;2022-12-29T06:10:57;99347.09;;;11.13;85.54
60465;BME280;46314;52.392;9.758;2022-12-29T06:13:23;99354.50;;;11.30;86.50
60465;BME280;46314;52.392;9.758;2022-12-29T06:15:50;99340.94;;;11.28;86.47
60465;BME280;46314;52.392;9.758;2022-12-29T06:18:17;99327.81;;;11.16;87.70
60465;BME280;46314;52.392;9.758;2022-12-29T06:20:45;99328.44;;;11.01;89.03
60465;BME280;46314;52.392;9.758;2022-12-29T06:23:12;99319.06;;;10.85;90.94
60465;BME280;46314;52.392;9.758;2022-12-29T06:25:40;99300.09;;;10.66;91.18
60465;BME280;46314;52.392;9.758;2022-12-29T06:28:07;99306.34;;;10.84;91.33
60465;BME280;46314;52.392;9.758;2022-12-29T06:30:33;99313.28;;;10.69;93.33
60465;BME280;46314;52.392;9.758;2022-12-29T06:32:59;99306.56;;;10.78;92.60
60465;BME280;46314;52.392;9.758;2022-12-29T06:35:26;99303.03;;;10.90;92.62
60465;BME280;46314;52.392;9.758;2022-12-29T06:37:52;99294.97;;;11.18;90.86
60465;BME280;46314;52.392;9.758;2022-12-29T06:40:19;99292.41;;;10.71;93.48
60465;BME280;46314;52.392;9.758;2022-12-29T06:42:47;99289.78;;;11.17;91.01
60465;BME280;46314;52.392;9.758;2022-12-29T06:45:13;99302.50;;;10.97;92.14
60465;BME280;46314;52.392;9.758;2022-12-29T06:47:40;99292.56;;;10.96;91.85
60465;BME280;46314;52.392;9.758;2022-12-29T06:50:07;99292.34;;;10.80;92.26
60465;BME280;46314;52.392;9.758;2022-12-29T06:52:33;99285.03;;;10.75;91.60
60465;BME280;46314;52.392;9.758;2022-12-29T06:55:00;99286.59;;;11.06;90.97
60465;BME280;46314;52.392;9.758;2022-12-29T06:57:26;99295.75;;;11.07;92.25
60465;BME280;46314;52.392;9.758;2022-12-29T06:59:54;99298.25;;;10.99;89.70
60465;BME280;46314;52.392;9.758;2022-12-29T07:02:20;99283.66;;;11.24;88.92
60465;BME280;46314;52.392;9.758;2022-12-29T07:04:47;99291.19;;;11.23;88.71
60465;BME280;46314;52.392;9.758;2022-12-29T07:07:13;99282.94;;;11.14;87.89
60465;BME280;46314;52.392;9.758;2022-12-29T07:09:40;99275.41;;;11.36;87.28
60465;BME280;46314;52.392;9.758;2022-12-29T07:12:06;99266.72;;;11.37;85.91
60465;BME280;46314;52.392;9.758;2022-12-29T07:14:32;99278.66;;;11.38;86.66
60465;BME280;46314;52.392;9.758;2022-12-29T07:17:09;99296.47;;;11.37;85.47
60465;BME280;46314;52.392;9.758;2022-12-29T07:19:36;99366.41;;;11.51;85.62
60465;BME280;46314;52.392;9.758;2022-12-29T07:22:02;99405.50;;;10.57;87.89
60465;BME280;46314;52.392;9.758;2022-12-29T07:24:28;99402.59;;;9.71;97.12
60465;BME280;46314;52.392;9.758;2022-12-29T07:26:55;99402.44;;;9.76;95.03
60465;BME280;46314;52.392;9.758;2022-12-29T07:29:23;99410.25;;;9.39;99.66
60465;BME280;46314;52.392;9.758;2022-12-29T07:31:49;99408.13;;;9.45;98.83
60465;BME280;46314;52.392;9.758;2022-12-29T07:34:17;99415.25;;;9.28;100.00
60465;BME280;46314;52.392;9.758;2022-12-29T07:36:43;99420.66;;;9.42;100.00
60465;BME280;46314;52.392;9.758;2022-12-29T07:39:10;99434.78;;;9.32;100.00
60465;BME280;46314;52.392;9.758;2022-12-29T07:41:36;99420.66;;;9.60;100.00
60465;BME280;46314;52.392;9.758;2022-12-29T07:44:03;99425.38;;;9.85;100.00
60465;BME280;46314;52.392;9.758;2022-12-29T07:46:29;99423.59;;;9.81;99.04
60465;BME280;46314;52.392;9.758;2022-12-29T07:49:17;99432.56;;;9.60;100.00
60465;BME280;46314;52.392;9.758;2022-12-29T07:51:43;99421.25;;;10.09;99.39
60465;BME280;46314;52.392;9.758;2022-12-29T07:54:10;99426.16;;;10.03;99.34
60465;BME280;46314;52.392;9.758;2022-12-29T07:56:36;99436.63;;;9.89;99.74
60465;BME280;46314;52.392;9.758;2022-12-29T07:59:03;99417.22;;;9.89;100.00
60465;BME280;46314;52.392;9.758;2022-12-29T08:01:29;99424.53;;;10.02;98.40
60465;BME280;46314;52.392;9.758;2022-12-29T08:03:56;99418.13;;;10.46;96.09
60465;BME280;46314;52.392;9.758;2022-12-29T08:06:24;99419.84;;;9.94;98.09
60465;BME280;46314;52.392;9.758;2022-12-29T08:08:52;99419.13;;;10.32;96.57
60465;BME280;46314;52.392;9.758;2022-12-29T08:11:19;99429.56;;;10.18;96.77
60465;BME280;46314;52.392;9.758;2022-12-29T08:13:45;99433.84;;;9.89;96.76
60465;BME280;46314;52.392;9.758;2022-12-29T08:16:12;99435.94;;;10.18;96.45
60465;BME280;46314;52.392;9.758;2022-12-29T08:18:38;99439.34;;;10.33;95.06
60465;BME280;46314;52.392;9.758;2022-12-29T08:21:05;99448.63;;;10.19;96.06
60465;BME280;46314;52.392;9.758;2022-12-29T08:23:33;99447.66;;;10.24;95.39
60465;BME280;46314;52.392;9.758;2022-12-29T08:26:02;99448.31;;;10.21;94.68
60465;BME280;46314;52.392;9.758;2022-12-29T08:28:29;99444.75;;;10.03;94.92
60465;BME280;46314;52.392;9.758;2022-12-29T08:30:57;99437.41;;;9.98;94.32
60465;BME280;46314;52.392;9.758;2022-12-29T08:33:24;99445.41;;;10.09;94.46
60465;BME280;46314;52.392;9.758;2022-12-29T08:35:50;99458.28;;;9.87;94.13
60465;BME280;46314;52.392;9.758;2022-12-29T08:38:17;99457.13;;;9.79;92.74
60465;BME280;46314;52.392;9.758;2022-12-29T08:40:44;99456.41;;;10.52;91.33
60465;BME280;46314;52.392;9.758;2022-12-29T08:43:11;99465.09;;;10.16;91.48
60465;BME280;46314;52.392;9.758;2022-12-29T08:45:42;99453.66;;;10.44;90.08
60465;BME280;46314;52.392;9.758;2022-12-29T08:48:08;99465.59;;;10.18;88.17
60465;BME280;46314;52.392;9.758;2022-12-29T08:50:35;99478.94;;;10.24;88.59
60465;BME280;46314;52.392;9.758;2022-12-29T08:53:01;99470.31;;;10.35;86.53
60465;BME280;46314;52.392;9.758;2022-12-29T08:55:28;99482.53;;;10.08;87.96
60465;BME280;46314;52.392;9.758;2022-12-29T08:57:55;99482.03;;;10.23;86.85
60465;BME280;46314;52.392;9.758;2022-12-29T09:00:22;99481.88;;;10.19;86.34
60465;BME280;46314;52.392;9.758;2022-12-29T09:02:49;99494.13;;;10.01;87.33
60465;BME280;46314;52.392;9.758;2022-12-29T09:05:16;99487.09;;;10.21;85.77
60465;BME280;46314;52.392;9.758;2022-12-29T09:07:43;99492.97;;;10.46;85.17
60465;BME280;46314;52.392;9.758;2022-12-29T09:10:09;99491.22;;;9.97;87.59
60465;BME280;46314;52.392;9.758;2022-12-29T09:12:36;99486.06;;;10.60;86.21
60465;BME280;46314;52.392;9.758;2022-12-29T09:15:05;99476.50;;;10.32;85.42
60465;BME280;46314;52.392;9.758;2022-12-29T09:17:32;99488.22;;;10.29;85.90
60465;BME280;46314;52.392;9.758;2022-12-29T09:19:59;99484.81;;;10.96;84.32
60465;BME280;46314;52.392;9.758;2022-12-29T09:22:25;99476.81;;;10.48;85.46
60465;BME280;46314;52.392;9.758;2022-12-29T09:24:52;99475.59;;;10.75;84.15
60465;BME280;46314;52.392;9.758;2022-12-29T09:27:18;99477.19;;;10.85;83.44
60465;BME280;46314;52.392;9.758;2022-12-29T09:29:44;99482.72;;;11.23;82.93
60465;BME280;46314;52.392;9.758;2022-12-29T09:32:12;99489.88;;;10.47;85.92
60465;BME280;46314;52.392;9.758;2022-12-29T09:34:44;99488.09;;;10.90;84.25
60465;BME280;46314;52.392;9.758;2022-12-29T09:37:10;99490.13;;;10.72;84.04
60465;BME280;46314;52.392;9.758;2022-12-29T09:39:37;99484.03;;;10.87;84.65
60465;BME280;46314;52.392;9.758;2022-12-29T09:42:07;99488.78;;;10.78;84.61
60465;BME280;46314;52.392;9.758;2022-12-29T09:44:54;99484.72;;;10.75;85.92
60465;BME280;46314;52.392;9.758;2022-12-29T09:47:23;99478.88;;;11.07;85.23
60465;BME280;46314;52.392;9.758;2022-12-29T09:49:53;99483.47;;;10.64;86.22
60465;BME280;46314;52.392;9.758;2022-12-29T09:52:22;99476.63;;;11.30;84.66
60465;BME280;46314;52.392;9.758;2022-12-29T09:54:52;99487.03;;;11.12;84.98
60465;BME280;46314;52.392;9.758;2022-12-29T09:57:33;99499.00;;;10.95;87.06
60465;BME280;46314;52.392;9.758;2022-12-29T10:00:05;99502.91;;;10.55;88.51
60465;BME280;46314;52.392;9.758;2022-12-29T10:02:38;99508.72;;;10.71;88.24
60465;BME280;46314;52.392;9.758;2022-12-29T10:05:15;99487.38;;;10.63;88.56
60465;BME280;46314;52.392;9.758;2022-12-29T10:07:49;99491.78;;;11.03;86.36
60465;BME280;46314;52.392;9.758;2022-12-29T10:10:29;99498.50;;;10.46;89.54
60465;BME280;46314;52.392;9.758;2022-12-29T10:13:08;99497.38;;;10.47;89.40
60465;BME280;46314;52.392;9.758;2022-12-29T10:15:46;99496.22;;;10.13;90.56
60465;BME280;46314;52.392;9.758;2022-12-29T10:18:52;99487.09;;;10.38;89.90
60465;BME280;46314;52.392;9.758;2022-12-29T10:21:27;99489.56;;;10.40;89.34
60465;BME280;46314;52.392;9.758;2022-12-29T10:23:57;99490.66;;;10.56;88.62
60465;BME280;46314;52.392;9.758;2022-12-29T10:26:27;99486.56;;;10.63;89.65
60465;BME280;46314;52.392;9.758;2022-12-29T10:28:57;99484.59;;;11.10;85.83
60465;BME280;46314;52.392;9.758;2022-12-29T10:31:32;99479.72;;;10.60;88.15
60465;BME280;46314;52.392;9.758;2022-12-29T10:34:05;99478.75;;;10.56;87.72
60465;BME280;46314;52.392;9.758;2022-12-29T10:36:39;99464.50;;;10.75;88.16
60465;BME280;46314;52.392;9.758;2022-12-29T10:39:13;99463.94;;;10.43;88.76
60465;BME280;46314;52.392;9.758;2022-12-29T10:41:46;99463.53;;;10.62;86.81
60465;BME280;46314;52.392;9.758;2022-12-29T10:44:16;99469.25;;;10.66;86.02
60465;BME280;46314;52.392;9.758;2022-12-29T10:46:56;99460.91;;;10.74;85.14
60465;BME280;46314;52.392;9.758;2022-12-29T10:49:27;99459.00;;;10.66;84.60
60465;BME280;46314;52.392;9.758;2022-12-29T10:51:57;99453.31;;;10.54;84.53
60465;BME280;46314;52.392;9.758;2022-12-29T10:54:27;99455.47;;;10.87;82.25
60465;BME280;46314;52.392;9.758;2022-12-29T10:57:00;99452.75;;;10.69;81.16
60465;BME280;46314;52.392;9.758;2022-12-29T10:59:30;99462.66;;;11.17;80.50
60465;BME280;46314;52.392;9.758;2022-12-29T11:02:12;99471.00;;;10.79;80.61
60465;BME280;46314;52.392;9.758;2022-12-29T11:04:51;99465.56;;;10.91;81.05
60465;BME280;46314;52.392;9.758;2022-12-29T11:07:21;99470.38;;;10.73;80.00
60465;BME280;46314;52.392;9.758;2022-12-29T11:09:52;99467.09;;;10.80;80.78
60465;BME280;46314;52.392;9.758;2022-12-29T11:12:21;99465.50;;;10.70;79.92
60465;BME280;46314;52.392;9.758;2022-12-29T11:15:01;99473.53;;;11.02;78.03
60465;BME280;46314;52.392;9.758;2022-12-29T11:17:27;99472.44;;;10.85;80.75
60465;BME280;46314;52.392;9.758;2022-12-29T11:19:55;99487.94;;;11.25;77.59
60465;BME280;46314;52.392;9.758;2022-12-29T11:22:24;99478.81;;;11.24;76.80
60465;BME280;46314;52.392;9.758;2022-12-29T11:24:52;99478.44;;;10.96;77.17
60465;BME280;46314;52.392;9.758;2022-12-29T11:27:21;99470.94;;;10.96;78.26
60465;BME280;46314;52.392;9.758;2022-12-29T11:29:49;99477.28;;;10.97;77.33
60465;BME280;46314;52.392;9.758;2022-12-29T11:32:18;99473.47;;;10.72;79.62
60465;BME280;46314;52.392;9.758;2022-12-29T11:34:53;99468.59;;;10.69;78.34
60465;BME280;46314;52.392;9.758;2022-12-29T11:37:26;99475.28;;;10.76;78.57
60465;BME280;46314;52.392;9.758;2022-12-29T11:39:56;99470.50;;;10.86;78.51
60465;BME280;46314;52.392;9.758;2022-12-29T11:42:32;99474.56;;;11.18;76.73
60465;BME280;46314;52.392;9.758;2022-12-29T11:45:04;99490.09;;;10.80;79.18
60465;BME280;46314;52.392;9.758;2022-12-29T11:47:36;99480.31;;;10.74;79.53
60465;BME280;46314;52.392;9.758;2022-12-29T11:50:05;99488.75;;;10.87;78.47
60465;BME280;46314;52.392;9.758;2022-12-29T11:52:35;99490.31;;;11.05;77.48
60465;BME280;46314;52.392;9.758;2022-12-29T11:55:04;99503.22;;;11.31;76.21
60465;BME280;46314;52.392;9.758;2022-12-29T11:57:34;99503.13;;;11.48;75.09
60465;BME280;46314;52.392;9.758;2022-12-29T12:00:05;99497.94;;;11.47;75.04
60465;BME280;46314;52.392;9.758;2022-12-29T12:02:42;99503.31;;;11.43;74.39
60465;BME280;46314;52.392;9.758;2022-12-29T12:05:21;99492.91;;;11.40;75.15
60465;BME280;46314;52.392;9.758;2022-12-29T12:07:55;99495.34;;;11.42;75.17
60465;BME280;46314;52.392;9.758;2022-12-29T12:10:26;99497.22;;;11.80;73.20
60465;BME280;46314;52.392;9.758;2022-12-29T12:12:59;99505.97;;;11.90;72.33
60465;BME280;46314;52.392;9.758;2022-12-29T12:15:31;99500.56;;;11.64;71.31
60465;BME280;46314;52.392;9.758;2022-12-29T12:18:10;99512.53;;;11.65;70.92
60465;BME280;46314;52.392;9.758;2022-12-29T12:20:42;99504.31;;;11.68;71.16
60465;BME280;46314;52.392;9.758;2022-12-29T12:23:22;99514.38;;;12.03;69.42
60465;BME280;46314;52.392;9.758;2022-12-29T12:26:01;99506.38;;;12.01;70.12
60465;BME280;46314;52.392;9.758;2022-12-29T12:28:36;99487.41;;;11.82;69.90
60465;BME280;46314;52.392;9.758;2022-12-29T12:31:06;99506.69;;;11.58;70.11
60465;BME280;46314;52.392;9.758;2022-12-29T12:33:43;99515.38;;;11.77;69.73
60465;BME280;46314;52.392;9.758;2022-12-29T12:36:21;99501.25;;;11.40;70.87
60465;BME280;46314;52.392;9.758;2022-12-29T12:39:00;99507.56;;;11.70;70.30
60465;BME280;46314;52.392;9.758;2022-12-29T12:41:38;99515.31;;;11.35;71.32
60465;BME280;46314;52.392;9.758;2022-12-29T12:44:16;99502.81;;;11.71;69.52
60465;BME280;46314;52.392;9.758;2022-12-29T12:47:01;99511.19;;;11.41;71.36
60465;BME280;46314;52.392;9.758;2022-12-29T12:52:28;99512.53;;;11.35;70.98
60465;BME280;46314;52.392;9.758;2022-12-29T12:55:15;99513.00;;;11.37;71.48
60465;BME280;46314;52.392;9.758;2022-12-29T12:57:50;99507.75;;;11.44;71.01
60465;BME280;46314;52.392;9.758;2022-12-29T13:00:19;99510.00;;;11.21;71.33
60465;BME280;46314;52.392;9.758;2022-12-29T13:02:56;99516.25;;;11.39;71.13
60465;BME280;46314;52.392;9.758;2022-12-29T13:05:38;99512.06;;;11.33;70.96
60465;BME280;46314;52.392;9.758;2022-12-29T13:08:28;99522.97;;;11.38;70.46
60465;BME280;46314;52.392;9.758;2022-12-29T13:11:08;99525.81;;;11.29;71.05
60465;BME280;46314;52.392;9.758;2022-12-29T13:14:10;99521.81;;;11.39;70.50
60465;BME280;46314;52.392;9.758;2022-12-29T13:16:46;99528.56;;;11.59;70.00
60465;BME280;46314;52.392;9.758;2022-12-29T13:19:23;99526.13;;;11.58;69.33